sensor_id;sensor_type;location;lat;lon;timestamp;pressure;altitude;pressure_sealevel;temperature;humidity
53300;BME280;39187;48.476;8.310;2022-09-12T00:01:24;91484.28;;;11.82;100.00
53300;BME280;39187;48.476;8.310;2022-09-12T00:03:53;91485.59;;;11.74;100.00
53300;BME280;39187;48.476;8.310;2022-09-12T00:06:23;91491.63;;;11.58;100.00
53300;BME280;39187;48.476;8.310;2022-09-12T00:08:50;91493.06;;;11.63;100.00
53300;BME280;39187;48.476;8.310;2022-09-12T00:11:16;91486.44;;;11.51;100.00
53300;BME280;39187;48.476;8.310;2022-09-12T00:13:42;91479.88;;;11.56;100.00
53300;BME280;39187;48.476;8.310;2022-09-12T00:16:17;91475.06;;;11.47;100.00
53300;BME280;39187;48.476;8.310;2022-09-12T00:18:44;91476.53;;;11.52;100.00
53300;BME280;39187;48.476;8.310;2022-09-12T00:21:11;91477.47;;;11.61;100.00
53300;BME280;39187;48.476;8.310;2022-09-12T00:23:37;91478.31;;;11.58;100.00
53300;BME280;39187;48.476;8.310;2022-09-12T00:26:06;91474.94;;;11.54;100.00
53300;BME280;39187;48.476;8.310;2022-09-12T00:28:33;91471.19;;;11.52;100.00
53300;BME280;39187;48.476;8.310;2022-09-12T00:31:03;91483.53;;;11.62;100.00
53300;BME280;39187;48.476;8.310;2022-09-12T00:33:29;91475.81;;;11.68;100.00
53300;BME280;39187;48.476;8.310;2022-09-12T00:35:55;91471.31;;;11.64;100.00
53300;BME280;39187;48.476;8.310;2022-09-12T00:38:21;91476.66;;;11.64;100.00
53300;BME280;39187;48.476;8.310;2022-09-12T00:40:47;91476.25;;;11.46;100.00
53300;BME280;39187;48.476;8.310;2022-09-12T00:43:36;91469.84;;;11.44;100.00
53300;BME280;39187;48.476;8.310;2022-09-12T00:48:43;91471.63;;;11.66;100.00
53300;BME280;39187;48.476;8.310;2022-09-12T00:51:11;91466.28;;;11.50;100.00
53300;BME280;39187;48.476;8.310;2022-09-12T00:53:38;91468.31;;;11.43;100.00
53300;BME280;39187;48.476;8.310;2022-09-12T00:56:06;91467.09;;;11.47;100.00
53300;BME280;39187;48.476;8.310;2022-09-12T00:58:48;91456.28;;;11.54;100.00
53300;BME280;39187;48.476;8.310;2022-09-12T01:01:15;91455.53;;;11.54;100.00
53300;BME280;39187;48.476;8.310;2022-09-12T01:03:41;91445.34;;;11.49;100.00
53300;BME280;39187;48.476;8.310;2022-09-12T01:06:15;91447.63;;;11.50;100.00
53300;BME280;39187;48.476;8.310;2022-09-12T01:08:43;91444.09;;;11.53;100.00
53300;BME280;39187;48.476;8.310;2022-09-12T01:11:11;91438.91;;;11.46;100.00
53300;BME280;39187;48.476;8.310;2022-09-12T01:13:37;91433.59;;;11.46;100.00
53300;BME280;39187;48.476;8.310;2022-09-12T01:16:04;91434.84;;;11.42;100.00
53300;BME280;39187;48.476;8.310;2022-09-12T01:21:19;91430.00;;;11.37;100.00
53300;BME280;39187;48.476;8.310;2022-09-12T01:40:55;91428.66;;;11.64;100.00
53300;BME280;39187;48.476;8.310;2022-09-12T01:43:34;91428.56;;;11.68;100.00
53300;BME280;39187;48.476;8.310;2022-09-12T01:46:10;91424.56;;;11.60;100.00
53300;BME280;39187;48.476;8.310;2022-09-12T01:48:43;91413.72;;;11.67;100.00
53300;BME280;39187;48.476;8.310;2022-09-12T01:54:04;91407.66;;;11.66;100.00
53300;BME280;39187;48.476;8.310;2022-09-12T01:56:34;91418.06;;;11.61;100.00
53300;BME280;39187;48.476;8.310;2022-09-12T01:59:05;91413.56;;;11.58;100.00
53300;BME280;39187;48.476;8.310;2022-09-12T02:01:38;91412.31;;;11.62;100.00
53300;BME280;39187;48.476;8.310;2022-09-12T02:04:17;91406.94;;;11.46;100.00
53300;BME280;39187;48.476;8.310;2022-09-12T02:06:46;91403.47;;;11.49;100.00
53300;BME280;39187;48.476;8.310;2022-09-12T02:09:25;91395.97;;;11.60;100.00
53300;BME280;39187;48.476;8.310;2022-09-12T02:11:56;91400.56;;;11.60;100.00
53300;BME280;39187;48.476;8.310;2022-09-12T02:14:27;91408.66;;;11.56;100.00
53300;BME280;39187;48.476;8.310;2022-09-12T02:19:43;91399.13;;;11.55;100.00
53300;BME280;39187;48.476;8.310;2022-09-12T02:22:14;91402.66;;;11.69;100.00
53300;BME280;39187;48.476;8.310;2022-09-12T02:24:43;91394.91;;;11.58;100.00
53300;BME280;39187;48.476;8.310;2022-09-12T02:27:14;91399.81;;;11.59;100.00
53300;BME280;39187;48.476;8.310;2022-09-12T02:29:41;91390.03;;;11.53;100.00
53300;BME280;39187;48.476;8.310;2022-09-12T02:32:29;91385.34;;;11.41;100.00
53300;BME280;39187;48.476;8.310;2022-09-12T02:35:02;91389.28;;;11.36;100.00
53300;BME280;39187;48.476;8.310;2022-09-12T02:40:12;91388.13;;;11.37;100.00
53300;BME280;39187;48.476;8.310;2022-09-12T02:42:38;91387.28;;;11.40;100.00
53300;BME280;39187;48.476;8.310;2022-09-12T02:45:04;91394.09;;;11.41;100.00
53300;BME280;39187;48.476;8.310;2022-09-12T02:47:36;91390.53;;;11.48;100.00
53300;BME280;39187;48.476;8.310;2022-09-12T02:50:04;91386.81;;;11.45;100.00
53300;BME280;39187;48.476;8.310;2022-09-12T02:52:33;91384.69;;;11.37;100.00
53300;BME280;39187;48.476;8.310;2022-09-12T02:55:00;91383.13;;;11.39;100.00
53300;BME280;39187;48.476;8.310;2022-09-12T02:57:26;91378.63;;;11.36;100.00
53300;BME280;39187;48.476;8.310;2022-09-12T02:59:54;91388.38;;;11.43;100.00
53300;BME280;39187;48.476;8.310;2022-09-12T03:02:29;91391.69;;;11.47;100.00
53300;BME280;39187;48.476;8.310;2022-09-12T03:14:02;91382.78;;;11.37;100.00
53300;BME280;39187;48.476;8.310;2022-09-12T03:16:45;91381.03;;;11.47;100.00
53300;BME280;39187;48.476;8.310;2022-09-12T03:19:25;91381.50;;;11.61;100.00
53300;BME280;39187;48.476;8.310;2022-09-12T03:24:38;91382.06;;;11.53;100.00
53300;BME280;39187;48.476;8.310;2022-09-12T03:27:17;91377.97;;;11.48;100.00
53300;BME280;39187;48.476;8.310;2022-09-12T03:29:46;91378.13;;;11.41;100.00
53300;BME280;39187;48.476;8.310;2022-09-12T03:32:13;91376.72;;;11.53;100.00
53300;BME280;39187;48.476;8.310;2022-09-12T03:34:38;91373.63;;;11.38;100.00
53300;BME280;39187;48.476;8.310;2022-09-12T03:37:04;91375.81;;;11.43;100.00
53300;BME280;39187;48.476;8.310;2022-09-12T03:39:30;91375.13;;;11.39;100.00
53300;BME280;39187;48.476;8.310;2022-09-12T03:41:56;91377.38;;;11.41;100.00
53300;BME280;39187;48.476;8.310;2022-09-12T03:44:22;91366.31;;;11.42;100.00
53300;BME280;39187;48.476;8.310;2022-09-12T03:46:48;91374.28;;;11.42;100.00
53300;BME280;39187;48.476;8.310;2022-09-12T03:49:13;91367.31;;;11.48;100.00
53300;BME280;39187;48.476;8.310;2022-09-12T03:51:40;91373.03;;;11.47;100.00
53300;BME280;39187;48.476;8.310;2022-09-12T03:54:07;91373.91;;;11.60;100.00
53300;BME280;39187;48.476;8.310;2022-09-12T03:56:33;91370.56;;;11.56;100.00
53300;BME280;39187;48.476;8.310;2022-09-12T03:59:00;91376.16;;;11.61;100.00
53300;BME280;39187;48.476;8.310;2022-09-12T04:01:26;91377.91;;;11.52;100.00
53300;BME280;39187;48.476;8.310;2022-09-12T04:03:51;91383.25;;;11.52;100.00
53300;BME280;39187;48.476;8.310;2022-09-12T04:06:19;91376.75;;;11.69;100.00
53300;BME280;39187;48.476;8.310;2022-09-12T04:08:53;91375.34;;;11.64;100.00
53300;BME280;39187;48.476;8.310;2022-09-12T04:11:20;91371.22;;;11.60;100.00
53300;BME280;39187;48.476;8.310;2022-09-12T04:13:47;91365.50;;;11.61;100.00
53300;BME280;39187;48.476;8.310;2022-09-12T04:16:14;91366.66;;;11.60;100.00
53300;BME280;39187;48.476;8.310;2022-09-12T04:18:40;91369.72;;;11.43;100.00
53300;BME280;39187;48.476;8.310;2022-09-12T04:21:08;91371.44;;;11.33;100.00
53300;BME280;39187;48.476;8.310;2022-09-12T04:23:34;91367.56;;;11.38;100.00
53300;BME280;39187;48.476;8.310;2022-09-12T04:26:01;91371.13;;;11.47;100.00
53300;BME280;39187;48.476;8.310;2022-09-12T04:28:28;91372.78;;;11.41;100.00
53300;BME280;39187;48.476;8.310;2022-09-12T04:30:54;91361.22;;;11.32;100.00
53300;BME280;39187;48.476;8.310;2022-09-12T04:33:21;91366.16;;;11.49;100.00
53300;BME280;39187;48.476;8.310;2022-09-12T04:35:47;91371.38;;;11.37;100.00
53300;BME280;39187;48.476;8.310;2022-09-12T04:38:13;91363.78;;;11.35;100.00
53300;BME280;39187;48.476;8.310;2022-09-12T04:40:38;91370.00;;;11.29;100.00
53300;BME280;39187;48.476;8.310;2022-09-12T04:43:04;91361.81;;;11.39;100.00
53300;BME280;39187;48.476;8.310;2022-09-12T04:45:32;91363.13;;;11.47;100.00
53300;BME280;39187;48.476;8.310;2022-09-12T04:47:58;91365.69;;;11.35;100.00
53300;BME280;39187;48.476;8.310;2022-09-12T04:50:23;91360.22;;;11.42;100.00
53300;BME280;39187;48.476;8.310;2022-09-12T04:52:53;91359.31;;;11.48;100.00
53300;BME280;39187;48.476;8.310;2022-09-12T04:55:20;91349.81;;;11.47;100.00
53300;BME280;39187;48.476;8.310;2022-09-12T04:57:45;91350.41;;;11.55;100.00
53300;BME280;39187;48.476;8.310;2022-09-12T05:00:11;91355.22;;;11.44;100.00
53300;BME280;39187;48.476;8.310;2022-09-12T05:02:38;91349.16;;;11.43;100.00
53300;BME280;39187;48.476;8.310;2022-09-12T05:05:04;91356.63;;;11.32;100.00
53300;BME280;39187;48.476;8.310;2022-09-12T05:07:30;91351.06;;;11.43;100.00
53300;BME280;39187;48.476;8.310;2022-09-12T05:09:56;91357.94;;;11.24;100.00
53300;BME280;39187;48.476;8.310;2022-09-12T05:12:22;91358.09;;;11.17;100.00
53300;BME280;39187;48.476;8.310;2022-09-12T05:14:47;91363.63;;;11.26;100.00
53300;BME280;39187;48.476;8.310;2022-09-12T05:17:13;91363.38;;;11.53;100.00
53300;BME280;39187;48.476;8.310;2022-09-12T05:19:39;91360.56;;;11.60;100.00
53300;BME280;39187;48.476;8.310;2022-09-12T05:22:04;91359.53;;;12.06;100.00
53300;BME280;39187;48.476;8.310;2022-09-12T05:24:31;91366.44;;;12.65;100.00
53300;BME280;39187;48.476;8.310;2022-09-12T05:26:57;91364.50;;;13.23;100.00
53300;BME280;39187;48.476;8.310;2022-09-12T05:29:23;91365.38;;;13.71;100.00
53300;BME280;39187;48.476;8.310;2022-09-12T05:31:50;91368.66;;;14.13;96.60
53300;BME280;39187;48.476;8.310;2022-09-12T05:34:17;91361.69;;;14.62;94.08
53300;BME280;39187;48.476;8.310;2022-09-12T05:36:43;91354.69;;;14.77;91.09
53300;BME280;39187;48.476;8.310;2022-09-12T05:39:08;91363.38;;;15.03;88.10
53300;BME280;39187;48.476;8.310;2022-09-12T05:41:34;91357.28;;;15.34;86.74
53300;BME280;39187;48.476;8.310;2022-09-12T05:44:02;91362.06;;;15.60;84.37
53300;BME280;39187;48.476;8.310;2022-09-12T05:46:36;91356.31;;;16.20;81.63
53300;BME280;39187;48.476;8.310;2022-09-12T05:49:10;91358.97;;;16.69;78.24
53300;BME280;39187;48.476;8.310;2022-09-12T05:51:38;91358.63;;;17.04;76.41
53300;BME280;39187;48.476;8.310;2022-09-12T05:54:06;91360.81;;;17.42;73.75
53300;BME280;39187;48.476;8.310;2022-09-12T05:56:36;91362.84;;;17.74;71.55
53300;BME280;39187;48.476;8.310;2022-09-12T05:59:05;91366.72;;;17.82;69.28
53300;BME280;39187;48.476;8.310;2022-09-12T06:01:33;91371.34;;;18.24;68.53
53300;BME280;39187;48.476;8.310;2022-09-12T06:04:01;91376.91;;;18.44;67.37
53300;BME280;39187;48.476;8.310;2022-09-12T06:06:29;91374.84;;;18.72;65.32
53300;BME280;39187;48.476;8.310;2022-09-12T06:08:57;91365.94;;;18.80;64.35
53300;BME280;39187;48.476;8.310;2022-09-12T06:11:25;91377.25;;;18.94;64.21
53300;BME280;39187;48.476;8.310;2022-09-12T06:13:51;91374.38;;;19.12;62.20
53300;BME280;39187;48.476;8.310;2022-09-12T06:16:25;91370.41;;;19.22;59.78
53300;BME280;39187;48.476;8.310;2022-09-12T06:18:54;91377.34;;;18.99;60.08
53300;BME280;39187;48.476;8.310;2022-09-12T06:21:21;91366.94;;;19.07;60.06
53300;BME280;39187;48.476;8.310;2022-09-12T06:23:47;91374.19;;;19.01;59.51
53300;BME280;39187;48.476;8.310;2022-09-12T06:26:14;91375.75;;;18.69;59.77
53300;BME280;39187;48.476;8.310;2022-09-12T06:28:42;91371.25;;;19.13;58.52
53300;BME280;39187;48.476;8.310;2022-09-12T06:31:17;91367.66;;;18.93;59.09
53300;BME280;39187;48.476;8.310;2022-09-12T06:33:47;91359.09;;;18.94;58.19
53300;BME280;39187;48.476;8.310;2022-09-12T06:36:19;91355.34;;;19.30;58.58
53300;BME280;39187;48.476;8.310;2022-09-12T06:38:45;91361.72;;;19.56;57.33
53300;BME280;39187;48.476;8.310;2022-09-12T06:41:14;91365.50;;;20.09;56.38
53300;BME280;39187;48.476;8.310;2022-09-12T06:43:40;91361.75;;;20.06;56.48
53300;BME280;39187;48.476;8.310;2022-09-12T06:46:07;91352.88;;;20.35;55.04
53300;BME280;39187;48.476;8.310;2022-09-12T06:48:34;91365.91;;;20.36;54.44
53300;BME280;39187;48.476;8.310;2022-09-12T06:51:03;91367.59;;;20.19;54.84
53300;BME280;39187;48.476;8.310;2022-09-12T06:53:30;91352.56;;;20.48;55.03
53300;BME280;39187;48.476;8.310;2022-09-12T06:56:03;91357.69;;;20.46;54.43
53300;BME280;39187;48.476;8.310;2022-09-12T06:58:29;91361.22;;;20.52;54.30
53300;BME280;39187;48.476;8.310;2022-09-12T07:01:19;91356.50;;;20.67;52.45
53300;BME280;39187;48.476;8.310;2022-09-12T07:03:50;91356.63;;;20.58;53.30
53300;BME280;39187;48.476;8.310;2022-09-12T07:06:18;91361.75;;;20.21;53.14
53300;BME280;39187;48.476;8.310;2022-09-12T07:08:45;91354.47;;;20.12;53.90
53300;BME280;39187;48.476;8.310;2022-09-12T07:11:19;91363.22;;;20.22;53.31
53300;BME280;39187;48.476;8.310;2022-09-12T07:13:47;91358.72;;;19.84;52.13
53300;BME280;39187;48.476;8.310;2022-09-12T07:16:14;91362.22;;;20.19;52.73
53300;BME280;39187;48.476;8.310;2022-09-12T07:18:40;91351.91;;;19.88;51.85
53300;BME280;39187;48.476;8.310;2022-09-12T07:21:10;91349.69;;;19.72;51.85
53300;BME280;39187;48.476;8.310;2022-09-12T07:23:36;91355.28;;;19.83;53.00
53300;BME280;39187;48.476;8.310;2022-09-12T07:26:02;91349.97;;;19.89;52.48
53300;BME280;39187;48.476;8.310;2022-09-12T07:28:30;91356.00;;;19.98;51.29
53300;BME280;39187;48.476;8.310;2022-09-12T07:30:57;91351.84;;;19.68;51.81
53300;BME280;39187;48.476;8.310;2022-09-12T07:33:28;91353.31;;;19.54;52.30
53300;BME280;39187;48.476;8.310;2022-09-12T07:35:54;91363.47;;;19.89;52.00
53300;BME280;39187;48.476;8.310;2022-09-12T07:38:24;91362.50;;;20.21;52.19
53300;BME280;39187;48.476;8.310;2022-09-12T07:40:50;91360.16;;;20.14;52.03
53300;BME280;39187;48.476;8.310;2022-09-12T07:43:15;91361.44;;;20.48;51.52
53300;BME280;39187;48.476;8.310;2022-09-12T07:45:41;91364.25;;;20.24;50.98
53300;BME280;39187;48.476;8.310;2022-09-12T07:48:08;91360.28;;;20.75;50.83
53300;BME280;39187;48.476;8.310;2022-09-12T07:50:34;91358.31;;;20.06;49.91
53300;BME280;39187;48.476;8.310;2022-09-12T07:53:03;91364.53;;;20.12;49.90
53300;BME280;39187;48.476;8.310;2022-09-12T07:55:30;91360.31;;;20.40;49.15
53300;BME280;39187;48.476;8.310;2022-09-12T07:57:55;91359.59;;;20.60;49.58
53300;BME280;39187;48.476;8.310;2022-09-12T08:00:21;91357.47;;;20.49;48.94
53300;BME280;39187;48.476;8.310;2022-09-12T08:02:51;91356.06;;;20.19;49.08
53300;BME280;39187;48.476;8.310;2022-09-12T08:05:18;91367.09;;;20.50;48.63
53300;BME280;39187;48.476;8.310;2022-09-12T08:07:44;91376.31;;;20.78;47.88
53300;BME280;39187;48.476;8.310;2022-09-12T08:10:10;91374.94;;;20.48;49.03
53300;BME280;39187;48.476;8.310;2022-09-12T08:12:35;91373.63;;;20.78;47.88
53300;BME280;39187;48.476;8.310;2022-09-12T08:15:01;91380.22;;;20.57;48.53
53300;BME280;39187;48.476;8.310;2022-09-12T08:17:26;91376.41;;;20.49;47.65
53300;BME280;39187;48.476;8.310;2022-09-12T08:19:53;91376.75;;;20.57;48.84
53300;BME280;39187;48.476;8.310;2022-09-12T08:22:19;91368.44;;;20.25;47.64
53300;BME280;39187;48.476;8.310;2022-09-12T08:24:49;91365.88;;;20.01;47.42
53300;BME280;39187;48.476;8.310;2022-09-12T08:27:15;91362.84;;;20.29;48.81
53300;BME280;39187;48.476;8.310;2022-09-12T08:29:40;91379.44;;;20.36;48.55
53300;BME280;39187;48.476;8.310;2022-09-12T08:32:06;91369.00;;;20.64;49.89
53300;BME280;39187;48.476;8.310;2022-09-12T08:34:32;91368.69;;;20.42;47.93
53300;BME280;39187;48.476;8.310;2022-09-12T08:36:57;91370.97;;;20.64;47.79
53300;BME280;39187;48.476;8.310;2022-09-12T08:39:23;91370.13;;;20.58;47.83
53300;BME280;39187;48.476;8.310;2022-09-12T08:41:59;91372.31;;;20.54;47.60
53300;BME280;39187;48.476;8.310;2022-09-12T08:44:55;91377.78;;;20.59;47.64
53300;BME280;39187;48.476;8.310;2022-09-12T08:47:37;91380.66;;;21.11;49.12
53300;BME280;39187;48.476;8.310;2022-09-12T08:55:25;91367.81;;;20.86;46.75
53300;BME280;39187;48.476;8.310;2022-09-12T08:57:52;91371.75;;;20.50;45.70
53300;BME280;39187;48.476;8.310;2022-09-12T09:00:19;91373.22;;;20.16;46.56
53300;BME280;39187;48.476;8.310;2022-09-12T09:05:40;91379.03;;;20.78;47.28
53300;BME280;39187;48.476;8.310;2022-09-12T09:08:22;91385.19;;;20.44;45.79
53300;BME280;39187;48.476;8.310;2022-09-12T09:17:01;91376.91;;;20.48;44.96
53300;BME280;39187;48.476;8.310;2022-09-12T09:19:36;91383.41;;;20.96;45.24
53300;BME280;39187;48.476;8.310;2022-09-12T09:22:13;91372.53;;;21.11;44.68
53300;BME280;39187;48.476;8.310;2022-09-12T09:24:50;91375.09;;;21.20;43.30
53300;BME280;39187;48.476;8.310;2022-09-12T09:27:38;91372.13;;;19.78;43.09
53300;BME280;39187;48.476;8.310;2022-09-12T09:30:12;91378.28;;;19.93;42.67
53300;BME280;39187;48.476;8.310;2022-09-12T09:32:40;91372.69;;;19.82;45.39
53300;BME280;39187;48.476;8.310;2022-09-12T09:37:59;91385.47;;;19.29;45.83
53300;BME280;39187;48.476;8.310;2022-09-12T09:40:55;91378.25;;;18.96;44.85
53300;BME280;39187;48.476;8.310;2022-09-12T09:43:24;91380.34;;;19.16;45.37
53300;BME280;39187;48.476;8.310;2022-09-12T09:45:53;91383.41;;;19.09;45.62
53300;BME280;39187;48.476;8.310;2022-09-12T09:48:35;91374.06;;;18.95;45.99
53300;BME280;39187;48.476;8.310;2022-09-12T09:51:03;91375.50;;;19.05;46.71
53300;BME280;39187;48.476;8.310;2022-09-12T09:53:42;91382.38;;;18.82;46.21
53300;BME280;39187;48.476;8.310;2022-09-12T09:56:26;91381.69;;;18.49;47.67
53300;BME280;39187;48.476;8.310;2022-09-12T09:58:52;91385.94;;;19.12;48.21
53300;BME280;39187;48.476;8.310;2022-09-12T10:01:18;91381.19;;;19.46;47.07
53300;BME280;39187;48.476;8.310;2022-09-12T10:03:49;91374.41;;;19.41;47.74
53300;BME280;39187;48.476;8.310;2022-09-12T10:08:45;91375.97;;;18.80;45.54
53300;BME280;39187;48.476;8.310;2022-09-12T10:16:21;91372.09;;;18.96;46.87
53300;BME280;39187;48.476;8.310;2022-09-12T10:18:48;91372.81;;;19.20;48.52
53300;BME280;39187;48.476;8.310;2022-09-12T10:21:31;91375.31;;;19.62;45.98
53300;BME280;39187;48.476;8.310;2022-09-12T10:26:55;91369.00;;;19.12;46.25
53300;BME280;39187;48.476;8.310;2022-09-12T10:29:24;91364.19;;;18.92;46.35
53300;BME280;39187;48.476;8.310;2022-09-12T10:31:57;91354.19;;;19.46;45.26
53300;BME280;39187;48.476;8.310;2022-09-12T10:34:29;91363.19;;;20.01;44.86
53300;BME280;39187;48.476;8.310;2022-09-12T10:37:54;91358.16;;;19.80;43.32
53300;BME280;39187;48.476;8.310;2022-09-12T10:39:56;91363.47;;;19.45;44.16
53300;BME280;39187;48.476;8.310;2022-09-12T10:42:50;91355.31;;;20.03;41.46
53300;BME280;39187;48.476;8.310;2022-09-12T10:47:51;91351.34;;;19.99;40.67
53300;BME280;39187;48.476;8.310;2022-09-12T10:50:30;91361.47;;;20.19;41.22
53300;BME280;39187;48.476;8.310;2022-09-12T10:53:23;91341.03;;;21.13;40.18
53300;BME280;39187;48.476;8.310;2022-09-12T10:56:10;91345.78;;;19.88;44.04
53300;BME280;39187;48.476;8.310;2022-09-12T11:01:36;91358.09;;;19.06;42.61
53300;BME280;39187;48.476;8.310;2022-09-12T11:09:39;91358.00;;;18.77;44.58
53300;BME280;39187;48.476;8.310;2022-09-12T11:12:42;91353.81;;;19.00;43.72
53300;BME280;39187;48.476;8.310;2022-09-12T11:16:13;91356.56;;;18.91;44.77
53300;BME280;39187;48.476;8.310;2022-09-12T11:19:07;91357.75;;;18.90;43.56
53300;BME280;39187;48.476;8.310;2022-09-12T11:21:56;91362.91;;;19.02;42.59
53300;BME280;39187;48.476;8.310;2022-09-12T11:24:34;91352.94;;;18.46;42.16
53300;BME280;39187;48.476;8.310;2022-09-12T11:29:58;91357.31;;;18.91;43.68
53300;BME280;39187;48.476;8.310;2022-09-12T11:33:11;91349.72;;;18.66;45.71
53300;BME280;39187;48.476;8.310;2022-09-12T11:36:01;91348.16;;;18.74;44.93
53300;BME280;39187;48.476;8.310;2022-09-12T11:38:44;91331.88;;;19.07;43.76
53300;BME280;39187;48.476;8.310;2022-09-12T11:41:19;91332.44;;;19.11;44.38
53300;BME280;39187;48.476;8.310;2022-09-12T11:44:05;91335.03;;;19.05;42.72
53300;BME280;39187;48.476;8.310;2022-09-12T11:46:37;91328.09;;;18.75;46.40
53300;BME280;39187;48.476;8.310;2022-09-12T11:51:43;91319.66;;;18.97;45.89
53300;BME280;39187;48.476;8.310;2022-09-12T11:56:52;91328.19;;;18.80;47.03
53300;BME280;39187;48.476;8.310;2022-09-12T11:59:29;91323.81;;;18.83;47.10
53300;BME280;39187;48.476;8.310;2022-09-12T12:01:58;91319.06;;;18.78;47.23
53300;BME280;39187;48.476;8.310;2022-09-12T12:04:32;91310.97;;;18.54;47.17
53300;BME280;39187;48.476;8.310;2022-09-12T12:07:06;91311.78;;;18.46;46.82
53300;BME280;39187;48.476;8.310;2022-09-12T12:09:32;91316.91;;;18.67;47.03
53300;BME280;39187;48.476;8.310;2022-09-12T12:12:02;91317.25;;;18.60;47.39
53300;BME280;39187;48.476;8.310;2022-09-12T12:14:37;91315.09;;;18.40;45.92
53300;BME280;39187;48.476;8.310;2022-09-12T12:17:16;91321.72;;;18.63;48.27
53300;BME280;39187;48.476;8.310;2022-09-12T12:19:44;91322.31;;;18.82;47.56
53300;BME280;39187;48.476;8.310;2022-09-12T12:22:21;91325.50;;;18.80;48.63
53300;BME280;39187;48.476;8.310;2022-09-12T12:25:21;91318.53;;;19.03;47.33
53300;BME280;39187;48.476;8.310;2022-09-12T12:33:50;91319.00;;;19.02;44.99
53300;BME280;39187;48.476;8.310;2022-09-12T12:38:31;91321.44;;;19.00;42.98
53300;BME280;39187;48.476;8.310;2022-09-12T12:43:46;91314.94;;;19.36;42.83
53300;BME280;39187;48.476;8.310;2022-09-12T12:46:32;91316.25;;;19.26;44.08
53300;BME280;39187;48.476;8.310;2022-09-12T12:49:10;91311.13;;;19.13;44.71
53300;BME280;39187;48.476;8.310;2022-09-12T12:51:54;91312.75;;;18.96;45.21
53300;BME280;39187;48.476;8.310;2022-09-12T13:02:24;91302.47;;;19.23;44.91
53300;BME280;39187;48.476;8.310;2022-09-12T13:04:51;91297.06;;;19.09;45.67
53300;BME280;39187;48.476;8.310;2022-09-12T13:07:28;91291.88;;;19.20;45.19
53300;BME280;39187;48.476;8.310;2022-09-12T13:09:55;91289.06;;;19.00;46.92
53300;BME280;39187;48.476;8.310;2022-09-12T13:12:44;91296.06;;;19.06;47.13
53300;BME280;39187;48.476;8.310;2022-09-12T13:15:45;91287.97;;;19.06;47.23
53300;BME280;39187;48.476;8.310;2022-09-12T13:18:24;91288.59;;;19.01;46.37
53300;BME280;39187;48.476;8.310;2022-09-12T13:21:14;91279.94;;;18.97;46.06
53300;BME280;39187;48.476;8.310;2022-09-12T13:23:38;91280.06;;;19.17;46.22
53300;BME280;39187;48.476;8.310;2022-09-12T13:26:10;91277.44;;;19.23;46.35
53300;BME280;39187;48.476;8.310;2022-09-12T13:28:36;91279.13;;;19.50;45.61
53300;BME280;39187;48.476;8.310;2022-09-12T13:31:21;91273.25;;;19.22;47.37
53300;BME280;39187;48.476;8.310;2022-09-12T13:33:51;91274.94;;;19.49;47.55
53300;BME280;39187;48.476;8.310;2022-09-12T13:39:16;91277.25;;;19.41;47.07
53300;BME280;39187;48.476;8.310;2022-09-12T13:45:00;91263.66;;;19.21;47.78
53300;BME280;39187;48.476;8.310;2022-09-12T13:47:40;91267.09;;;19.21;48.25
53300;BME280;39187;48.476;8.310;2022-09-12T13:50:07;91276.13;;;19.04;47.62
53300;BME280;39187;48.476;8.310;2022-09-12T13:52:37;91273.63;;;19.30;47.54
53300;BME280;39187;48.476;8.310;2022-09-12T13:55:28;91265.16;;;19.22;47.74
53300;BME280;39187;48.476;8.310;2022-09-12T13:58:00;91273.63;;;19.30;47.25
53300;BME280;39187;48.476;8.310;2022-09-12T14:00:28;91265.63;;;19.50;47.93
53300;BME280;39187;48.476;8.310;2022-09-12T14:02:56;91260.88;;;19.59;47.82
53300;BME280;39187;48.476;8.310;2022-09-12T14:05:42;91260.31;;;19.55;48.13
53300;BME280;39187;48.476;8.310;2022-09-12T14:08:11;91249.91;;;19.48;47.35
53300;BME280;39187;48.476;8.310;2022-09-12T14:10:42;91242.25;;;19.47;47.44
53300;BME280;39187;48.476;8.310;2022-09-12T14:13:11;91244.19;;;19.76;46.77
53300;BME280;39187;48.476;8.310;2022-09-12T14:15:39;91238.97;;;19.72;47.43
53300;BME280;39187;48.476;8.310;2022-09-12T14:18:27;91245.50;;;20.00;46.35
53300;BME280;39187;48.476;8.310;2022-09-12T14:20:55;91253.22;;;19.73;47.39
53300;BME280;39187;48.476;8.310;2022-09-12T14:23:31;91245.78;;;19.68;47.91
53300;BME280;39187;48.476;8.310;2022-09-12T14:26:01;91241.66;;;19.72;48.16
53300;BME280;39187;48.476;8.310;2022-09-12T14:28:28;91237.53;;;19.56;48.26
53300;BME280;39187;48.476;8.310;2022-09-12T14:31:51;91230.44;;;19.44;47.76
53300;BME280;39187;48.476;8.310;2022-09-12T14:33:53;91233.56;;;19.72;47.23
53300;BME280;39187;48.476;8.310;2022-09-12T14:36:21;91233.47;;;20.01;46.81
53300;BME280;39187;48.476;8.310;2022-09-12T14:39:00;91240.38;;;19.68;48.25
53300;BME280;39187;48.476;8.310;2022-09-12T14:41:29;91226.44;;;19.89;47.03
53300;BME280;39187;48.476;8.310;2022-09-12T14:43:59;91232.69;;;20.16;46.75
53300;BME280;39187;48.476;8.310;2022-09-12T14:57:04;91233.00;;;19.83;46.82
53300;BME280;39187;48.476;8.310;2022-09-12T14:59:37;91223.88;;;20.00;45.99
53300;BME280;39187;48.476;8.310;2022-09-12T15:05:13;91219.28;;;19.86;47.44
53300;BME280;39187;48.476;8.310;2022-09-12T15:07:51;91224.31;;;19.79;47.57
53300;BME280;39187;48.476;8.310;2022-09-12T15:10:36;91227.94;;;19.55;46.65
53300;BME280;39187;48.476;8.310;2022-09-12T15:13:13;91220.53;;;19.71;46.32
53300;BME280;39187;48.476;8.310;2022-09-12T15:15:44;91215.22;;;19.76;47.18
53300;BME280;39187;48.476;8.310;2022-09-12T15:18:10;91212.66;;;19.87;48.14
53300;BME280;39187;48.476;8.310;2022-09-12T15:20:38;91212.63;;;19.67;49.35
53300;BME280;39187;48.476;8.310;2022-09-12T15:23:08;91218.41;;;19.95;49.82
53300;BME280;39187;48.476;8.310;2022-09-12T15:25:36;91223.56;;;20.13;50.21
53300;BME280;39187;48.476;8.310;2022-09-12T15:28:10;91213.34;;;20.23;50.19